sensor_id;sensor_type;location;lat;lon;timestamp;P1;durP1;ratioP1;P2;durP2;ratioP2
15393;SDS011;7795;47.986;11.868;2023-02-26T00:00:16;1.33;;;1.23;;
15393;SDS011;7795;47.986;11.868;2023-02-26T00:02:45;1.20;;;1.20;;
15393;SDS011;7795;47.986;11.868;2023-02-26T00:05:14;1.40;;;1.30;;
15393;SDS011;7795;47.986;11.868;2023-02-26T00:07:40;1.33;;;1.23;;
15393;SDS011;7795;47.986;11.868;2023-02-26T00:10:07;1.50;;;1.40;;
15393;SDS011;7795;47.986;11.868;2023-02-26T00:12:35;1.30;;;1.30;;
15393;SDS011;7795;47.986;11.868;2023-02-26T00:15:02;1.57;;;1.47;;
15393;SDS011;7795;47.986;11.868;2023-02-26T00:17:31;1.40;;;1.30;;
15393;SDS011;7795;47.986;11.868;2023-02-26T00:20:05;1.53;;;1.43;;
15393;SDS011;7795;47.986;11.868;2023-02-26T00:22:34;1.37;;;1.27;;
15393;SDS011;7795;47.986;11.868;2023-02-26T00:25:00;1.10;;;1.10;;
15393;SDS011;7795;47.986;11.868;2023-02-26T00:27:26;1.50;;;1.40;;
15393;SDS011;7795;47.986;11.868;2023-02-26T00:29:52;1.30;;;1.20;;
15393;SDS011;7795;47.986;11.868;2023-02-26T00:32:18;1.70;;;1.60;;
15393;SDS011;7795;47.986;11.868;2023-02-26T00:34:44;2.10;;;1.37;;
15393;SDS011;7795;47.986;11.868;2023-02-26T00:37:13;1.23;;;1.20;;
15393;SDS011;7795;47.986;11.868;2023-02-26T00:39:55;1.40;;;1.30;;
15393;SDS011;7795;47.986;11.868;2023-02-26T00:42:33;1.70;;;1.60;;
15393;SDS011;7795;47.986;11.868;2023-02-26T00:44:59;1.63;;;1.53;;
15393;SDS011;7795;47.986;11.868;2023-02-26T00:47:28;1.30;;;1.20;;
15393;SDS011;7795;47.986;11.868;2023-02-26T00:50:02;1.57;;;1.47;;
15393;SDS011;7795;47.986;11.868;2023-02-26T00:52:38;1.73;;;1.63;;
15393;SDS011;7795;47.986;11.868;2023-02-26T00:55:09;1.67;;;1.50;;
15393;SDS011;7795;47.986;11.868;2023-02-26T00:57:35;1.70;;;1.60;;
15393;SDS011;7795;47.986;11.868;2023-02-26T01:00:01;1.60;;;1.50;;
15393;SDS011;7795;47.986;11.868;2023-02-26T01:02:30;1.80;;;1.70;;
15393;SDS011;7795;47.986;11.868;2023-02-26T01:04:56;1.80;;;1.70;;
15393;SDS011;7795;47.986;11.868;2023-02-26T01:07:23;2.23;;;2.03;;
15393;SDS011;7795;47.986;11.868;2023-02-26T01:09:50;2.33;;;1.73;;
15393;SDS011;7795;47.986;11.868;2023-02-26T01:12:18;1.83;;;1.60;;
15393;SDS011;7795;47.986;11.868;2023-02-26T01:14:44;1.87;;;1.73;;
15393;SDS011;7795;47.986;11.868;2023-02-26T01:17:13;1.60;;;1.50;;
15393;SDS011;7795;47.986;11.868;2023-02-26T01:19:43;1.67;;;1.57;;
15393;SDS011;7795;47.986;11.868;2023-02-26T01:22:14;1.80;;;1.70;;
15393;SDS011;7795;47.986;11.868;2023-02-26T01:24:45;1.83;;;1.73;;
15393;SDS011;7795;47.986;11.868;2023-02-26T01:27:12;2.30;;;2.10;;
15393;SDS011;7795;47.986;11.868;2023-02-26T01:29:40;1.77;;;1.67;;
15393;SDS011;7795;47.986;11.868;2023-02-26T01:32:07;1.53;;;1.43;;
15393;SDS011;7795;47.986;11.868;2023-02-26T01:34:41;1.80;;;1.70;;
15393;SDS011;7795;47.986;11.868;2023-02-26T01:37:13;1.60;;;1.50;;
15393;SDS011;7795;47.986;11.868;2023-02-26T01:39:47;2.03;;;1.93;;
15393;SDS011;7795;47.986;11.868;2023-02-26T01:42:26;2.00;;;1.83;;
15393;SDS011;7795;47.986;11.868;2023-02-26T01:44:58;1.80;;;1.70;;
15393;SDS011;7795;47.986;11.868;2023-02-26T01:47:28;1.80;;;1.70;;
15393;SDS011;7795;47.986;11.868;2023-02-26T01:50:04;1.80;;;1.63;;
15393;SDS011;7795;47.986;11.868;2023-02-26T01:55:40;1.60;;;1.50;;
15393;SDS011;7795;47.986;11.868;2023-02-26T01:58:08;1.57;;;1.47;;
15393;SDS011;7795;47.986;11.868;2023-02-26T02:00:36;1.70;;;1.60;;
15393;SDS011;7795;47.986;11.868;2023-02-26T02:03:01;1.40;;;1.30;;
15393;SDS011;7795;47.986;11.868;2023-02-26T02:05:29;1.70;;;1.60;;
15393;SDS011;7795;47.986;11.868;2023-02-26T02:07:58;2.40;;;1.80;;
15393;SDS011;7795;47.986;11.868;2023-02-26T02:10:25;1.70;;;1.60;;
15393;SDS011;7795;47.986;11.868;2023-02-26T02:12:53;1.70;;;1.60;;
15393;SDS011;7795;47.986;11.868;2023-02-26T02:15:26;1.23;;;1.20;;
15393;SDS011;7795;47.986;11.868;2023-02-26T02:18:02;1.73;;;1.63;;
15393;SDS011;7795;47.986;11.868;2023-02-26T02:23:39;1.53;;;1.43;;
15393;SDS011;7795;47.986;11.868;2023-02-26T02:26:22;2.10;;;1.77;;
15393;SDS011;7795;47.986;11.868;2023-02-26T02:29:18;1.80;;;1.70;;
15393;SDS011;7795;47.986;11.868;2023-02-26T02:32:05;1.50;;;1.40;;
15393;SDS011;7795;47.986;11.868;2023-02-26T02:34:33;1.50;;;1.40;;
15393;SDS011;7795;47.986;11.868;2023-02-26T02:37:04;1.47;;;1.37;;
15393;SDS011;7795;47.986;11.868;2023-02-26T02:39:36;1.33;;;1.23;;
15393;SDS011;7795;47.986;11.868;2023-02-26T02:42:06;1.67;;;1.53;;
15393;SDS011;7795;47.986;11.868;2023-02-26T02:44:42;1.60;;;1.50;;
15393;SDS011;7795;47.986;11.868;2023-02-26T02:47:13;2.97;;;2.43;;
15393;SDS011;7795;47.986;11.868;2023-02-26T02:49:41;1.60;;;1.50;;
15393;SDS011;7795;47.986;11.868;2023-02-26T02:52:11;1.70;;;1.60;;
15393;SDS011;7795;47.986;11.868;2023-02-26T02:54:49;1.63;;;1.53;;
15393;SDS011;7795;47.986;11.868;2023-02-26T02:57:21;1.67;;;1.57;;
15393;SDS011;7795;47.986;11.868;2023-02-26T02:59:50;1.57;;;1.47;;
15393;SDS011;7795;47.986;11.868;2023-02-26T03:02:24;2.20;;;1.73;;
15393;SDS011;7795;47.986;11.868;2023-02-26T03:04:55;2.10;;;1.50;;
15393;SDS011;7795;47.986;11.868;2023-02-26T03:07:21;2.40;;;1.70;;
15393;SDS011;7795;47.986;11.868;2023-02-26T03:09:47;1.83;;;1.50;;
15393;SDS011;7795;47.986;11.868;2023-02-26T03:12:13;1.60;;;1.50;;
15393;SDS011;7795;47.986;11.868;2023-02-26T03:14:39;1.93;;;1.83;;
15393;SDS011;7795;47.986;11.868;2023-02-26T03:17:09;1.43;;;1.33;;
15393;SDS011;7795;47.986;11.868;2023-02-26T03:19:47;1.60;;;1.50;;
15393;SDS011;7795;47.986;11.868;2023-02-26T03:22:26;2.73;;;1.90;;
15393;SDS011;7795;47.986;11.868;2023-02-26T03:24:57;1.70;;;1.40;;
15393;SDS011;7795;47.986;11.868;2023-02-26T03:27:29;1.73;;;1.63;;
15393;SDS011;7795;47.986;11.868;2023-02-26T03:29:59;1.70;;;1.60;;
15393;SDS011;7795;47.986;11.868;2023-02-26T03:32:28;2.47;;;1.83;;
15393;SDS011;7795;47.986;11.868;2023-02-26T03:35:00;1.80;;;1.70;;
15393;SDS011;7795;47.986;11.868;2023-02-26T03:37:33;1.87;;;1.77;;
15393;SDS011;7795;47.986;11.868;2023-02-26T03:40:03;2.03;;;1.90;;
15393;SDS011;7795;47.986;11.868;2023-02-26T03:42:34;1.90;;;1.80;;
15393;SDS011;7795;47.986;11.868;2023-02-26T03:45:06;1.80;;;1.70;;
15393;SDS011;7795;47.986;11.868;2023-02-26T03:47:34;2.00;;;1.90;;
15393;SDS011;7795;47.986;11.868;2023-02-26T03:50:04;3.07;;;1.57;;
15393;SDS011;7795;47.986;11.868;2023-02-26T03:52:33;1.67;;;1.57;;
15393;SDS011;7795;47.986;11.868;2023-02-26T03:55:03;1.73;;;1.60;;
15393;SDS011;7795;47.986;11.868;2023-02-26T03:57:32;1.67;;;1.57;;
15393;SDS011;7795;47.986;11.868;2023-02-26T03:59:58;1.50;;;1.40;;
15393;SDS011;7795;47.986;11.868;2023-02-26T04:02:26;2.73;;;1.40;;
15393;SDS011;7795;47.986;11.868;2023-02-26T04:04:56;2.27;;;1.30;;
15393;SDS011;7795;47.986;11.868;2023-02-26T04:07:30;3.90;;;1.50;;
15393;SDS011;7795;47.986;11.868;2023-02-26T04:09:56;2.30;;;1.50;;
15393;SDS011;7795;47.986;11.868;2023-02-26T04:12:22;2.00;;;1.70;;
15393;SDS011;7795;47.986;11.868;2023-02-26T04:14:48;1.40;;;1.30;;
15393;SDS011;7795;47.986;11.868;2023-02-26T04:17:14;3.00;;;1.40;;
15393;SDS011;7795;47.986;11.868;2023-02-26T04:19:40;2.30;;;1.43;;
15393;SDS011;7795;47.986;11.868;2023-02-26T04:22:06;1.93;;;1.50;;
15393;SDS011;7795;47.986;11.868;2023-02-26T04:24:33;1.93;;;1.30;;
15393;SDS011;7795;47.986;11.868;2023-02-26T04:26:59;1.77;;;1.60;;
15393;SDS011;7795;47.986;11.868;2023-02-26T04:29:25;2.93;;;1.43;;
15393;SDS011;7795;47.986;11.868;2023-02-26T04:31:51;1.80;;;1.70;;
15393;SDS011;7795;47.986;11.868;2023-02-26T04:34:17;2.33;;;1.70;;
15393;SDS011;7795;47.986;11.868;2023-02-26T04:36:43;2.13;;;1.60;;
15393;SDS011;7795;47.986;11.868;2023-02-26T04:39:09;2.63;;;1.60;;
15393;SDS011;7795;47.986;11.868;2023-02-26T04:41:36;2.33;;;1.70;;
15393;SDS011;7795;47.986;11.868;2023-02-26T04:44:02;2.40;;;1.40;;
15393;SDS011;7795;47.986;11.868;2023-02-26T04:46:28;1.83;;;1.57;;
15393;SDS011;7795;47.986;11.868;2023-02-26T04:48:54;2.57;;;1.53;;
15393;SDS011;7795;47.986;11.868;2023-02-26T04:51:20;1.73;;;1.60;;
15393;SDS011;7795;47.986;11.868;2023-02-26T04:53:46;3.23;;;1.50;;
15393;SDS011;7795;47.986;11.868;2023-02-26T04:56:11;2.47;;;1.60;;
15393;SDS011;7795;47.986;11.868;2023-02-26T04:58:39;2.17;;;1.63;;
15393;SDS011;7795;47.986;11.868;2023-02-26T05:01:05;2.97;;;1.70;;
15393;SDS011;7795;47.986;11.868;2023-02-26T05:03:30;2.77;;;1.60;;
15393;SDS011;7795;47.986;11.868;2023-02-26T05:05:56;2.30;;;1.50;;
15393;SDS011;7795;47.986;11.868;2023-02-26T05:08:22;1.83;;;1.37;;
15393;SDS011;7795;47.986;11.868;2023-02-26T05:10:49;1.50;;;1.40;;
15393;SDS011;7795;47.986;11.868;2023-02-26T05:13:15;2.40;;;1.57;;
15393;SDS011;7795;47.986;11.868;2023-02-26T05:15:42;2.63;;;1.70;;
15393;SDS011;7795;47.986;11.868;2023-02-26T05:18:08;1.77;;;1.60;;
15393;SDS011;7795;47.986;11.868;2023-02-26T05:20:33;1.70;;;1.60;;
15393;SDS011;7795;47.986;11.868;2023-02-26T05:22:59;2.27;;;1.70;;
15393;SDS011;7795;47.986;11.868;2023-02-26T05:25:25;1.80;;;1.70;;
15393;SDS011;7795;47.986;11.868;2023-02-26T05:27:50;2.03;;;1.70;;
15393;SDS011;7795;47.986;11.868;2023-02-26T05:30:16;2.43;;;1.67;;
15393;SDS011;7795;47.986;11.868;2023-02-26T05:32:44;1.60;;;1.50;;
15393;SDS011;7795;47.986;11.868;2023-02-26T05:35:10;3.20;;;1.57;;
15393;SDS011;7795;47.986;11.868;2023-02-26T05:37:35;3.83;;;2.83;;
15393;SDS011;7795;47.986;11.868;2023-02-26T05:40:03;3.63;;;2.93;;
15393;SDS011;7795;47.986;11.868;2023-02-26T05:42:30;3.37;;;2.57;;
15393;SDS011;7795;47.986;11.868;2023-02-26T05:44:56;2.40;;;2.07;;
15393;SDS011;7795;47.986;11.868;2023-02-26T05:47:22;3.60;;;2.13;;
15393;SDS011;7795;47.986;11.868;2023-02-26T05:49:49;2.83;;;2.33;;
15393;SDS011;7795;47.986;11.868;2023-02-26T05:52:15;2.37;;;2.17;;
15393;SDS011;7795;47.986;11.868;2023-02-26T05:54:41;2.43;;;2.23;;
15393;SDS011;7795;47.986;11.868;2023-02-26T05:57:06;3.80;;;2.10;;
15393;SDS011;7795;47.986;11.868;2023-02-26T05:59:32;2.33;;;2.10;;
15393;SDS011;7795;47.986;11.868;2023-02-26T06:01:58;4.40;;;2.73;;
15393;SDS011;7795;47.986;11.868;2023-02-26T06:04:23;3.53;;;2.97;;
15393;SDS011;7795;47.986;11.868;2023-02-26T06:06:51;3.97;;;2.40;;
15393;SDS011;7795;47.986;11.868;2023-02-26T06:09:16;2.97;;;2.07;;
15393;SDS011;7795;47.986;11.868;2023-02-26T06:11:42;1.93;;;1.57;;
15393;SDS011;7795;47.986;11.868;2023-02-26T06:14:08;2.47;;;1.80;;
15393;SDS011;7795;47.986;11.868;2023-02-26T06:16:33;2.30;;;1.60;;
15393;SDS011;7795;47.986;11.868;2023-02-26T06:18:59;1.73;;;1.50;;
15393;SDS011;7795;47.986;11.868;2023-02-26T06:21:27;2.87;;;1.50;;
15393;SDS011;7795;47.986;11.868;2023-02-26T06:23:54;2.63;;;1.70;;
15393;SDS011;7795;47.986;11.868;2023-02-26T06:26:19;2.60;;;1.57;;
15393;SDS011;7795;47.986;11.868;2023-02-26T06:28:45;2.97;;;1.67;;
15393;SDS011;7795;47.986;11.868;2023-02-26T06:31:11;3.13;;;2.10;;
15393;SDS011;7795;47.986;11.868;2023-02-26T06:33:36;3.10;;;2.33;;
15393;SDS011;7795;47.986;11.868;2023-02-26T06:36:02;2.13;;;1.90;;
15393;SDS011;7795;47.986;11.868;2023-02-26T06:38:29;2.80;;;2.33;;
15393;SDS011;7795;47.986;11.868;2023-02-26T06:40:56;2.20;;;1.63;;
15393;SDS011;7795;47.986;11.868;2023-02-26T06:43:22;3.27;;;1.73;;
15393;SDS011;7795;47.986;11.868;2023-02-26T06:45:47;3.53;;;1.90;;
15393;SDS011;7795;47.986;11.868;2023-02-26T06:48:13;5.33;;;2.50;;
15393;SDS011;7795;47.986;11.868;2023-02-26T06:50:39;4.67;;;1.80;;
15393;SDS011;7795;47.986;11.868;2023-02-26T06:53:05;3.20;;;1.93;;
15393;SDS011;7795;47.986;11.868;2023-02-26T06:55:31;4.07;;;2.30;;
15393;SDS011;7795;47.986;11.868;2023-02-26T06:57:58;2.10;;;1.90;;
15393;SDS011;7795;47.986;11.868;2023-02-26T07:00:24;3.40;;;2.03;;
15393;SDS011;7795;47.986;11.868;2023-02-26T07:02:50;1.97;;;1.43;;
15393;SDS011;7795;47.986;11.868;2023-02-26T07:05:16;3.87;;;2.60;;
15393;SDS011;7795;47.986;11.868;2023-02-26T07:07:42;3.07;;;2.33;;
15393;SDS011;7795;47.986;11.868;2023-02-26T07:10:08;4.40;;;2.33;;
15393;SDS011;7795;47.986;11.868;2023-02-26T07:12:35;4.43;;;2.00;;
15393;SDS011;7795;47.986;11.868;2023-02-26T07:15:04;2.20;;;2.00;;
15393;SDS011;7795;47.986;11.868;2023-02-26T07:17:30;3.83;;;2.20;;
15393;SDS011;7795;47.986;11.868;2023-02-26T07:19:56;11.07;;;3.70;;
15393;SDS011;7795;47.986;11.868;2023-02-26T07:22:22;2.63;;;1.67;;
15393;SDS011;7795;47.986;11.868;2023-02-26T07:24:47;3.37;;;2.20;;
15393;SDS011;7795;47.986;11.868;2023-02-26T07:27:14;3.83;;;3.40;;
15393;SDS011;7795;47.986;11.868;2023-02-26T07:29:40;3.40;;;2.90;;
15393;SDS011;7795;47.986;11.868;2023-02-26T07:32:07;3.03;;;2.23;;
15393;SDS011;7795;47.986;11.868;2023-02-26T07:34:33;4.83;;;2.87;;
15393;SDS011;7795;47.986;11.868;2023-02-26T07:36:58;3.63;;;2.60;;
15393;SDS011;7795;47.986;11.868;2023-02-26T07:39:24;3.83;;;2.50;;
15393;SDS011;7795;47.986;11.868;2023-02-26T07:41:50;2.87;;;2.30;;
15393;SDS011;7795;47.986;11.868;2023-02-26T07:44:16;3.60;;;2.47;;
15393;SDS011;7795;47.986;11.868;2023-02-26T07:46:42;2.53;;;1.97;;
15393;SDS011;7795;47.986;11.868;2023-02-26T07:49:09;3.13;;;2.00;;
15393;SDS011;7795;47.986;11.868;2023-02-26T07:51:35;2.97;;;2.03;;
15393;SDS011;7795;47.986;11.868;2023-02-26T07:54:01;3.67;;;2.37;;
15393;SDS011;7795;47.986;11.868;2023-02-26T07:56:27;3.93;;;2.27;;
15393;SDS011;7795;47.986;11.868;2023-02-26T07:58:53;4.77;;;2.10;;
15393;SDS011;7795;47.986;11.868;2023-02-26T08:01:19;2.70;;;1.90;;
15393;SDS011;7795;47.986;11.868;2023-02-26T08:03:44;3.57;;;2.43;;
15393;SDS011;7795;47.986;11.868;2023-02-26T08:06:12;4.17;;;2.10;;
15393;SDS011;7795;47.986;11.868;2023-02-26T08:08:38;3.60;;;3.07;;
15393;SDS011;7795;47.986;11.868;2023-02-26T08:11:04;3.17;;;2.23;;
15393;SDS011;7795;47.986;11.868;2023-02-26T08:13:29;5.30;;;2.70;;
15393;SDS011;7795;47.986;11.868;2023-02-26T08:15:55;4.37;;;3.17;;
15393;SDS011;7795;47.986;11.868;2023-02-26T08:18:21;4.60;;;2.57;;
15393;SDS011;7795;47.986;11.868;2023-02-26T08:20:49;2.33;;;2.13;;
15393;SDS011;7795;47.986;11.868;2023-02-26T08:23:16;2.27;;;2.03;;
15393;SDS011;7795;47.986;11.868;2023-02-26T08:25:42;3.07;;;1.80;;
15393;SDS011;7795;47.986;11.868;2023-02-26T08:28:08;3.47;;;2.20;;
15393;SDS011;7795;47.986;11.868;2023-02-26T08:30:33;2.67;;;2.03;;
15393;SDS011;7795;47.986;11.868;2023-02-26T08:32:59;2.23;;;2.03;;
15393;SDS011;7795;47.986;11.868;2023-02-26T08:35:25;2.70;;;2.03;;
15393;SDS011;7795;47.986;11.868;2023-02-26T08:37:51;2.93;;;2.50;;
15393;SDS011;7795;47.986;11.868;2023-02-26T08:40:18;5.10;;;2.83;;
15393;SDS011;7795;47.986;11.868;2023-02-26T08:42:44;2.37;;;2.17;;
15393;SDS011;7795;47.986;11.868;2023-02-26T08:45:10;2.70;;;2.00;;
15393;SDS011;7795;47.986;11.868;2023-02-26T08:47:39;2.87;;;2.47;;
15393;SDS011;7795;47.986;11.868;2023-02-26T08:50:07;2.80;;;2.30;;
15393;SDS011;7795;47.986;11.868;2023-02-26T08:52:34;2.40;;;2.20;;
15393;SDS011;7795;47.986;11.868;2023-02-26T08:55:00;2.50;;;2.13;;
15393;SDS011;7795;47.986;11.868;2023-02-26T08:57:30;4.50;;;2.03;;
15393;SDS011;7795;47.986;11.868;2023-02-26T08:59:56;2.10;;;2.00;;
15393;SDS011;7795;47.986;11.868;2023-02-26T09:02:22;2.30;;;2.10;;
15393;SDS011;7795;47.986;11.868;2023-02-26T09:04:47;2.03;;;1.83;;
15393;SDS011;7795;47.986;11.868;2023-02-26T09:07:13;2.53;;;2.00;;
15393;SDS011;7795;47.986;11.868;2023-02-26T09:09:39;2.40;;;2.20;;
15393;SDS011;7795;47.986;11.868;2023-02-26T09:12:05;2.97;;;2.03;;
15393;SDS011;7795;47.986;11.868;2023-02-26T09:14:32;2.53;;;1.90;;
15393;SDS011;7795;47.986;11.868;2023-02-26T09:16:58;2.40;;;2.20;;
15393;SDS011;7795;47.986;11.868;2023-02-26T09:19:23;2.30;;;2.10;;
15393;SDS011;7795;47.986;11.868;2023-02-26T09:21:49;2.47;;;2.27;;
15393;SDS011;7795;47.986;11.868;2023-02-26T09:24:15;3.17;;;1.97;;
15393;SDS011;7795;47.986;11.868;2023-02-26T09:26:41;2.27;;;2.00;;
15393;SDS011;7795;47.986;11.868;2023-02-26T09:29:06;2.77;;;2.53;;
15393;SDS011;7795;47.986;11.868;2023-02-26T09:31:33;2.30;;;1.50;;
15393;SDS011;7795;47.986;11.868;2023-02-26T09:33:59;4.10;;;2.23;;
15393;SDS011;7795;47.986;11.868;2023-02-26T09:36:25;5.37;;;3.77;;
15393;SDS011;7795;47.986;11.868;2023-02-26T09:38:51;4.33;;;2.70;;
15393;SDS011;7795;47.986;11.868;2023-02-26T09:41:18;2.20;;;2.00;;
15393;SDS011;7795;47.986;11.868;2023-02-26T09:43:52;2.37;;;2.17;;
15393;SDS011;7795;47.986;11.868;2023-02-26T09:46:29;2.03;;;1.83;;
15393;SDS011;7795;47.986;11.868;2023-02-26T09:49:04;2.17;;;1.70;;
15393;SDS011;7795;47.986;11.868;2023-02-26T09:51:38;2.20;;;2.00;;
15393;SDS011;7795;47.986;11.868;2023-02-26T09:54:07;2.30;;;2.10;;
15393;SDS011;7795;47.986;11.868;2023-02-26T09:56:39;2.07;;;1.87;;
15393;SDS011;7795;47.986;11.868;2023-02-26T09:59:06;3.00;;;1.90;;
15393;SDS011;7795;47.986;11.868;2023-02-26T10:01:33;2.60;;;2.40;;
15393;SDS011;7795;47.986;11.868;2023-02-26T10:04:12;2.27;;;2.07;;
15393;SDS011;7795;47.986;11.868;2023-02-26T10:06:49;4.47;;;3.17;;
15393;SDS011;7795;47.986;11.868;2023-02-26T10:09:29;2.30;;;2.10;;
15393;SDS011;7795;47.986;11.868;2023-02-26T10:12:06;2.30;;;2.10;;
15393;SDS011;7795;47.986;11.868;2023-02-26T10:14:36;2.00;;;1.80;;
15393;SDS011;7795;47.986;11.868;2023-02-26T10:17:10;2.53;;;2.33;;
15393;SDS011;7795;47.986;11.868;2023-02-26T10:19:44;2.53;;;2.33;;
15393;SDS011;7795;47.986;11.868;2023-02-26T10:22:16;2.57;;;2.00;;
15393;SDS011;7795;47.986;11.868;2023-02-26T10:24:49;4.97;;;2.30;;
15393;SDS011;7795;47.986;11.868;2023-02-26T10:27:19;3.00;;;2.20;;
15393;SDS011;7795;47.986;11.868;2023-02-26T10:29:50;2.30;;;2.10;;
15393;SDS011;7795;47.986;11.868;2023-02-26T10:32:23;2.50;;;2.30;;
15393;SDS011;7795;47.986;11.868;2023-02-26T10:34:54;4.67;;;2.33;;
15393;SDS011;7795;47.986;11.868;2023-02-26T10:37:23;2.97;;;2.53;;
15393;SDS011;7795;47.986;11.868;2023-02-26T10:40:00;3.00;;;2.00;;
15393;SDS011;7795;47.986;11.868;2023-02-26T10:42:37;2.77;;;2.17;;
15393;SDS011;7795;47.986;11.868;2023-02-26T10:45:09;2.83;;;2.40;;
15393;SDS011;7795;47.986;11.868;2023-02-26T10:47:51;2.87;;;2.57;;
15393;SDS011;7795;47.986;11.868;2023-02-26T10:50:24;2.20;;;2.00;;
15393;SDS011;7795;47.986;11.868;2023-02-26T10:52:51;2.97;;;2.50;;
15393;SDS011;7795;47.986;11.868;2023-02-26T10:55:23;2.37;;;2.13;;
15393;SDS011;7795;47.986;11.868;2023-02-26T10:57:55;2.60;;;2.40;;
15393;SDS011;7795;47.986;11.868;2023-02-26T11:00:28;2.40;;;1.90;;
15393;SDS011;7795;47.986;11.868;2023-02-26T11:02:53;2.50;;;2.30;;
15393;SDS011;7795;47.986;11.868;2023-02-26T11:05:22;2.90;;;2.30;;
15393;SDS011;7795;47.986;11.868;2023-02-26T11:07:53;2.90;;;2.70;;
15393;SDS011;7795;47.986;11.868;2023-02-26T11:10:22;5.33;;;2.67;;
15393;SDS011;7795;47.986;11.868;2023-02-26T11:12:50;2.77;;;2.30;;
15393;SDS011;7795;47.986;11.868;2023-02-26T11:15:18;2.67;;;2.47;;
15393;SDS011;7795;47.986;11.868;2023-02-26T11:17:46;2.00;;;1.90;;
15393;SDS011;7795;47.986;11.868;2023-02-26T11:20:14;2.53;;;2.33;;
15393;SDS011;7795;47.986;11.868;2023-02-26T11:22:46;2.70;;;2.40;;
15393;SDS011;7795;47.986;11.868;2023-02-26T11:25:14;5.10;;;2.37;;
15393;SDS011;7795;47.986;11.868;2023-02-26T11:27:43;2.47;;;2.27;;
15393;SDS011;7795;47.986;11.868;2023-02-26T11:30:14;2.40;;;1.90;;
15393;SDS011;7795;47.986;11.868;2023-02-26T11:32:42;2.40;;;2.20;;
15393;SDS011;7795;47.986;11.868;2023-02-26T11:35:13;2.00;;;1.90;;
15393;SDS011;7795;47.986;11.868;2023-02-26T11:37:40;4.37;;;2.17;;
15393;SDS011;7795;47.986;11.868;2023-02-26T11:40:14;2.40;;;2.07;;
15393;SDS011;7795;47.986;11.868;2023-02-26T11:42:43;2.00;;;1.90;;
15393;SDS011;7795;47.986;11.868;2023-02-26T11:45:15;2.60;;;2.33;;
15393;SDS011;7795;47.986;11.868;2023-02-26T11:47:43;5.13;;;2.40;;
15393;SDS011;7795;47.986;11.868;2023-02-26T11:50:11;3.13;;;2.53;;
15393;SDS011;7795;47.986;11.868;2023-02-26T11:52:41;2.57;;;2.37;;
15393;SDS011;7795;47.986;11.868;2023-02-26T11:55:18;2.40;;;2.20;;
15393;SDS011;7795;47.986;11.868;2023-02-26T11:57:46;2.93;;;2.20;;
15393;SDS011;7795;47.986;11.868;2023-02-26T12:00:18;2.40;;;2.20;;
15393;SDS011;7795;47.986;11.868;2023-02-26T12:02:47;2.50;;;2.30;;
15393;SDS011;7795;47.986;11.868;2023-02-26T12:05:15;2.50;;;2.30;;
15393;SDS011;7795;47.986;11.868;2023-02-26T12:07:41;2.13;;;2.00;;
15393;SDS011;7795;47.986;11.868;2023-02-26T12:10:12;3.57;;;2.30;;
15393;SDS011;7795;47.986;11.868;2023-02-26T12:12:49;2.90;;;2.23;;
15393;SDS011;7795;47.986;11.868;2023-02-26T12:15:27;2.40;;;2.20;;
15393;SDS011;7795;47.986;11.868;2023-02-26T12:18:11;2.20;;;2.00;;
15393;SDS011;7795;47.986;11.868;2023-02-26T12:21:02;1.90;;;1.80;;
15393;SDS011;7795;47.986;11.868;2023-02-26T12:23:49;1.70;;;1.60;;
15393;SDS011;7795;47.986;11.868;2023-02-26T12:26:30;1.70;;;1.60;;
15393;SDS011;7795;47.986;11.868;2023-02-26T12:29:06;1.70;;;1.60;;
15393;SDS011;7795;47.986;11.868;2023-02-26T12:31:56;1.50;;;1.40;;
15393;SDS011;7795;47.986;11.868;2023-02-26T12:34:46;1.50;;;1.40;;
15393;SDS011;7795;47.986;11.868;2023-02-26T12:37:40;3.97;;;2.90;;
15393;SDS011;7795;47.986;11.868;2023-02-26T12:40:18;4.70;;;3.50;;
15393;SDS011;7795;47.986;11.868;2023-02-26T12:43:03;2.67;;;2.47;;
15393;SDS011;7795;47.986;11.868;2023-02-26T12:45:41;4.53;;;3.33;;
15393;SDS011;7795;47.986;11.868;2023-02-26T12:48:20;38.00;;;28.70;;
15393;SDS011;7795;47.986;11.868;2023-02-26T12:51:07;31.17;;;24.00;;
15393;SDS011;7795;47.986;11.868;2023-02-26T12:53:42;17.90;;;13.67;;
15393;SDS011;7795;47.986;11.868;2023-02-26T12:56:25;5.27;;;4.13;;
15393;SDS011;7795;47.986;11.868;2023-02-26T12:59:12;2.93;;;2.60;;
15393;SDS011;7795;47.986;11.868;2023-02-26T13:04:58;2.10;;;2.00;;
15393;SDS011;7795;47.986;11.868;2023-02-26T13:07:54;2.07;;;1.93;;
15393;SDS011;7795;47.986;11.868;2023-02-26T13:10:28;2.20;;;2.10;;
15393;SDS011;7795;47.986;11.868;2023-02-26T13:13:09;1.77;;;1.67;;
15393;SDS011;7795;47.986;11.868;2023-02-26T13:16:00;2.57;;;2.07;;
15393;SDS011;7795;47.986;11.868;2023-02-26T13:18:38;3.00;;;2.27;;
15393;SDS011;7795;47.986;11.868;2023-02-26T13:21:10;2.93;;;2.33;;
15393;SDS011;7795;47.986;11.868;2023-02-26T13:23:41;2.00;;;1.90;;
15393;SDS011;7795;47.986;11.868;2023-02-26T13:26:12;2.30;;;2.10;;
15393;SDS011;7795;47.986;11.868;2023-02-26T13:28:41;1.90;;;1.80;;
15393;SDS011;7795;47.986;11.868;2023-02-26T13:31:11;2.27;;;1.70;;
15393;SDS011;7795;47.986;11.868;2023-02-26T13:33:42;1.70;;;1.60;;
15393;SDS011;7795;47.986;11.868;2023-02-26T13:36:09;2.33;;;2.13;;
15393;SDS011;7795;47.986;11.868;2023-02-26T13:38:39;1.73;;;1.63;;
15393;SDS011;7795;47.986;11.868;2023-02-26T13:41:15;2.10;;;2.00;;
15393;SDS011;7795;47.986;11.868;2023-02-26T13:43:49;1.77;;;1.67;;
15393;SDS011;7795;47.986;11.868;2023-02-26T13:46:31;2.27;;;2.07;;
15393;SDS011;7795;47.986;11.868;2023-02-26T13:49:07;1.83;;;1.73;;
15393;SDS011;7795;47.986;11.868;2023-02-26T13:51:40;2.20;;;2.00;;
15393;SDS011;7795;47.986;11.868;2023-02-26T13:54:26;1.80;;;1.70;;
15393;SDS011;7795;47.986;11.868;2023-02-26T13:57:07;4.00;;;2.07;;
15393;SDS011;7795;47.986;11.868;2023-02-26T13:59:47;2.10;;;1.90;;
15393;SDS011;7795;47.986;11.868;2023-02-26T14:05:31;1.83;;;1.57;;
15393;SDS011;7795;47.986;11.868;2023-02-26T14:08:25;1.50;;;1.40;;
15393;SDS011;7795;47.986;11.868;2023-02-26T14:11:03;1.33;;;1.20;;
15393;SDS011;7795;47.986;11.868;2023-02-26T14:14:04;1.30;;;1.20;;
15393;SDS011;7795;47.986;11.868;2023-02-26T14:16:34;1.27;;;1.20;;
15393;SDS011;7795;47.986;11.868;2023-02-26T14:19:03;1.40;;;1.30;;
15393;SDS011;7795;47.986;11.868;2023-02-26T14:21:36;1.37;;;1.27;;
15393;SDS011;7795;47.986;11.868;2023-02-26T14:24:14;1.37;;;1.27;;
15393;SDS011;7795;47.986;11.868;2023-02-26T14:26:43;1.87;;;1.37;;
15393;SDS011;7795;47.986;11.868;2023-02-26T14:29:13;1.60;;;1.20;;
15393;SDS011;7795;47.986;11.868;2023-02-26T14:31:54;1.07;;;1.07;;
15393;SDS011;7795;47.986;11.868;2023-02-26T14:34:30;1.10;;;1.00;;
15393;SDS011;7795;47.986;11.868;2023-02-26T14:36:59;1.70;;;1.40;;
15393;SDS011;7795;47.986;11.868;2023-02-26T14:39:28;1.10;;;1.00;;
15393;SDS011;7795;47.986;11.868;2023-02-26T14:41:59;1.40;;;1.30;;
15393;SDS011;7795;47.986;11.868;2023-02-26T14:44:29;1.30;;;1.20;;
15393;SDS011;7795;47.986;11.868;2023-02-26T14:47:00;1.40;;;1.30;;
15393;SDS011;7795;47.986;11.868;2023-02-26T14:49:28;1.40;;;1.30;;
15393;SDS011;7795;47.986;11.868;2023-02-26T14:52:05;1.57;;;1.43;;
15393;SDS011;7795;47.986;11.868;2023-02-26T14:54:58;1.10;;;1.10;;
15393;SDS011;7795;47.986;11.868;2023-02-26T14:57:34;1.50;;;1.40;;
15393;SDS011;7795;47.986;11.868;2023-02-26T15:00:07;1.40;;;1.30;;
15393;SDS011;7795;47.986;11.868;2023-02-26T15:02:50;1.60;;;1.50;;
15393;SDS011;7795;47.986;11.868;2023-02-26T15:05:38;1.60;;;1.50;;
15393;SDS011;7795;47.986;11.868;2023-02-26T15:08:17;1.57;;;1.43;;
15393;SDS011;7795;47.986;11.868;2023-02-26T15:11:05;2.13;;;1.57;;
15393;SDS011;7795;47.986;11.868;2023-02-26T15:13:56;1.70;;;1.60;;
15393;SDS011;7795;47.986;11.868;2023-02-26T15:16:38;1.40;;;1.30;;
15393;SDS011;7795;47.986;11.868;2023-02-26T15:19:19;1.60;;;1.40;;